createdAt,value
2022-12-25T00:01:16.439Z,79.79
2022-12-25T00:03:43.614Z,80.26
2022-12-25T00:06:11.095Z,79.73
2022-12-25T00:08:39.587Z,79.54
2022-12-25T00:11:09.461Z,78.78
2022-12-25T00:13:36.830Z,79.43
2022-12-25T00:16:16.090Z,79.10
2022-12-25T00:18:44.857Z,79.50
2022-12-25T00:21:12.599Z,78.85
2022-12-25T00:23:40.017Z,78.62
2022-12-25T00:26:09.352Z,79.14
2022-12-25T00:28:36.347Z,77.61
2022-12-25T00:31:15.521Z,77.69
2022-12-25T00:33:44.176Z,78.71
2022-12-25T00:36:12.109Z,78.37
2022-12-25T00:38:40.193Z,78.03
2022-12-25T00:41:09.714Z,77.59
2022-12-25T00:43:38.492Z,76.57
2022-12-25T00:46:07.003Z,76.67
2022-12-25T00:48:35.324Z,77.88
2022-12-25T00:51:05.647Z,77.45
2022-12-25T00:53:33.498Z,77.00
2022-12-25T00:56:03.466Z,77.19
2022-12-25T00:58:32.197Z,76.80
2022-12-25T01:00:59.618Z,77.02
2022-12-25T01:03:27.016Z,77.14
2022-12-25T01:06:00.127Z,77.02
2022-12-25T01:08:30.574Z,76.42
2022-12-25T01:11:00.113Z,76.78
2022-12-25T01:13:28.155Z,75.18
2022-12-25T01:15:55.256Z,75.78
2022-12-25T01:18:24.220Z,76.05
2022-12-25T01:20:51.826Z,75.99
2022-12-25T01:23:18.763Z,75.95
2022-12-25T01:25:45.856Z,75.48
2022-12-25T01:28:13.078Z,75.61
2022-12-25T01:30:40.038Z,74.37
2022-12-25T01:33:07.224Z,74.79
2022-12-25T01:35:34.236Z,73.31
2022-12-25T01:38:01.922Z,73.85
2022-12-25T01:40:28.883Z,73.92
2022-12-25T01:42:56.047Z,73.87
2022-12-25T01:45:34.400Z,72.84
2022-12-25T01:48:06.063Z,73.44
2022-12-25T01:50:34.545Z,73.77
2022-12-25T01:53:02.419Z,73.77
2022-12-25T01:55:29.906Z,72.97
2022-12-25T01:57:57.130Z,73.47
2022-12-25T02:00:24.192Z,73.52
2022-12-25T02:02:51.220Z,74.14
2022-12-25T02:05:28.872Z,73.40
2022-12-25T02:07:58.116Z,73.92
2022-12-25T02:10:25.327Z,72.51
2022-12-25T02:12:53.160Z,72.58
2022-12-25T02:16:05.843Z,73.32
2022-12-25T02:18:54.016Z,73.64
2022-12-25T02:22:05.993Z,73.23
2022-12-25T02:25:08.089Z,73.87
2022-12-25T02:27:54.566Z,72.29
2022-12-25T02:30:22.259Z,72.32
2022-12-25T02:33:18.554Z,72.79
2022-12-25T02:35:52.584Z,73.34
2022-12-25T02:38:25.527Z,72.08
2022-12-25T02:40:57.804Z,72.57
2022-12-25T02:43:50.552Z,72.27
2022-12-25T02:46:40.853Z,71.80
2022-12-25T02:49:40.899Z,71.68
2022-12-25T02:52:32.149Z,71.99
2022-12-25T02:55:25.831Z,72.13
2022-12-25T02:58:14.618Z,71.60
2022-12-25T03:01:05.429Z,72.32
2022-12-25T03:03:55.126Z,71.26
2022-12-25T03:06:43.442Z,70.48
2022-12-25T03:09:40.345Z,71.08
2022-12-25T03:12:24.785Z,71.54
2022-12-25T03:15:10.559Z,70.96
2022-12-25T03:17:37.690Z,70.23
2022-12-25T03:20:25.836Z,71.20
2022-12-25T03:23:12.889Z,70.44
2022-12-25T03:25:58.728Z,70.66
2022-12-25T03:28:25.830Z,70.12
2022-12-25T03:31:11.211Z,70.23
2022-12-25T03:34:15.563Z,71.26
2022-12-25T03:37:13.510Z,70.96
2022-12-25T03:39:55.201Z,70.64
2022-12-25T03:43:02.029Z,70.92
2022-12-25T03:46:08.066Z,71.26
2022-12-25T03:48:59.632Z,71.10
2022-12-25T03:51:51.367Z,71.47
2022-12-25T03:54:41.758Z,71.15
2022-12-25T03:57:28.900Z,71.02
2022-12-25T04:00:14.547Z,70.79
2022-12-25T04:03:00.258Z,70.33
2022-12-25T04:05:45.871Z,71.01
2022-12-25T04:08:31.484Z,70.38
2022-12-25T04:11:17.091Z,70.42
2022-12-25T04:14:02.774Z,70.83
2022-12-25T04:16:48.373Z,70.59
2022-12-25T04:19:34.058Z,70.99
2022-12-25T04:22:19.973Z,70.64
2022-12-25T04:25:05.542Z,70.06
2022-12-25T04:27:51.261Z,69.42
2022-12-25T04:30:36.971Z,70.00
2022-12-25T04:33:22.675Z,69.92
2022-12-25T04:36:08.863Z,70.05
2022-12-25T04:38:36.510Z,70.91
2022-12-25T04:41:04.381Z,70.50
2022-12-25T04:43:31.316Z,70.83
2022-12-25T04:46:00.414Z,71.11
2022-12-25T04:48:29.946Z,70.56
2022-12-25T04:50:57.167Z,70.54
2022-12-25T04:53:24.287Z,70.77
2022-12-25T04:55:51.292Z,70.69
2022-12-25T04:58:18.363Z,70.38
2022-12-25T05:00:45.286Z,70.55
2022-12-25T05:03:12.367Z,70.03
2022-12-25T05:05:40.818Z,70.11
2022-12-25T05:08:07.920Z,70.05
2022-12-25T05:10:35.028Z,70.22
2022-12-25T05:13:01.919Z,69.78
2022-12-25T05:15:28.890Z,69.87
2022-12-25T05:17:55.793Z,69.56
2022-12-25T05:20:22.735Z,70.31
2022-12-25T05:22:49.722Z,70.25
2022-12-25T05:25:16.704Z,69.54
2022-12-25T05:27:46.521Z,70.55
2022-12-25T05:30:17.397Z,69.77
2022-12-25T05:32:44.328Z,70.50
2022-12-25T05:35:11.343Z,70.49
2022-12-25T05:37:38.352Z,70.77
2022-12-25T05:40:06.035Z,71.31
2022-12-25T05:42:33.105Z,71.03
2022-12-25T05:45:00.009Z,71.19
2022-12-25T05:47:26.925Z,71.51
2022-12-25T05:49:53.905Z,71.11
2022-12-25T05:52:20.866Z,71.38
2022-12-25T05:54:47.738Z,71.06
2022-12-25T05:57:14.651Z,71.38
2022-12-25T05:59:41.611Z,71.34
2022-12-25T06:02:08.773Z,71.34
2022-12-25T06:04:36.286Z,70.29
2022-12-25T06:07:03.280Z,69.80
2022-12-25T06:09:30.280Z,70.57
2022-12-25T06:11:57.198Z,70.44
2022-12-25T06:14:24.302Z,69.67
2022-12-25T06:16:53.107Z,69.87
2022-12-25T06:19:21.067Z,70.09
2022-12-25T06:21:48.851Z,69.23
2022-12-25T06:24:21.013Z,69.95
2022-12-25T06:26:48.898Z,70.12
2022-12-25T06:29:16.037Z,70.63
2022-12-25T06:31:43.249Z,70.28
2022-12-25T06:34:10.517Z,70.02
2022-12-25T06:36:38.393Z,70.24
2022-12-25T06:39:05.458Z,69.68
2022-12-25T06:41:32.427Z,69.37
2022-12-25T06:44:01.614Z,68.88
2022-12-25T06:46:30.169Z,69.15
2022-12-25T06:48:58.875Z,69.22
2022-12-25T06:51:28.694Z,69.20
2022-12-25T06:53:56.538Z,69.26
2022-12-25T06:56:26.020Z,69.29
2022-12-25T06:58:55.488Z,69.03
2022-12-25T07:01:27.123Z,69.11
2022-12-25T07:03:58.434Z,68.86
2022-12-25T07:06:25.615Z,68.75
2022-12-25T07:08:53.017Z,68.86
2022-12-25T07:11:21.040Z,68.62
2022-12-25T07:13:48.086Z,69.49
2022-12-25T07:16:15.748Z,68.91
2022-12-25T07:18:43.256Z,68.82
2022-12-25T07:21:18.841Z,69.13
2022-12-25T07:23:48.002Z,68.58
2022-12-25T07:26:15.499Z,68.34
2022-12-25T07:28:42.455Z,68.74
2022-12-25T07:31:18.061Z,68.84
2022-12-25T07:33:45.603Z,69.04
2022-12-25T07:36:13.505Z,68.82
2022-12-25T07:38:42.360Z,68.32
2022-12-25T07:41:10.473Z,68.81
2022-12-25T07:43:37.508Z,68.73
2022-12-25T07:46:06.031Z,68.73
2022-12-25T07:48:33.148Z,68.89
2022-12-25T07:51:02.924Z,68.81
2022-12-25T07:53:29.932Z,68.53
2022-12-25T07:56:08.548Z,67.65
2022-12-25T07:58:35.755Z,67.53
2022-12-25T08:01:16.761Z,68.13
2022-12-25T08:03:44.542Z,68.07
2022-12-25T08:06:12.080Z,68.00
2022-12-25T08:08:40.345Z,67.84
2022-12-25T08:11:09.762Z,68.23
2022-12-25T08:13:37.175Z,67.05
2022-12-25T08:16:08.043Z,67.28
2022-12-25T08:18:36.406Z,67.45
2022-12-25T08:21:05.181Z,67.65
2022-12-25T08:23:35.244Z,67.19
2022-12-25T08:26:05.305Z,67.88
2022-12-25T08:28:33.854Z,67.21
2022-12-25T08:31:10.329Z,66.88
2022-12-25T08:33:38.097Z,66.84
2022-12-25T08:36:07.765Z,67.07
2022-12-25T08:38:35.419Z,67.72
2022-12-25T08:41:02.618Z,67.41
2022-12-25T08:43:29.552Z,67.77
2022-12-25T08:45:56.821Z,67.26
2022-12-25T08:48:24.011Z,68.02
2022-12-25T08:50:52.882Z,68.69
2022-12-25T08:53:20.475Z,68.82
2022-12-25T08:55:47.792Z,68.85
2022-12-25T08:58:16.475Z,68.83
2022-12-25T09:00:43.414Z,69.04
2022-12-25T09:03:10.527Z,68.48
2022-12-25T09:05:38.573Z,68.71
2022-12-25T09:08:05.520Z,68.70
2022-12-25T09:10:36.539Z,69.18
2022-12-25T09:13:05.126Z,68.63
2022-12-25T09:15:32.243Z,68.56
2022-12-25T09:17:59.315Z,68.92
2022-12-25T09:20:26.381Z,68.75
2022-12-25T09:22:53.273Z,68.40
2022-12-25T09:25:20.190Z,68.26
2022-12-25T09:27:47.134Z,68.75
2022-12-25T09:30:14.200Z,68.85
2022-12-25T09:32:41.097Z,68.67
2022-12-25T09:35:09.071Z,68.16
2022-12-25T09:37:36.514Z,68.51
2022-12-25T09:40:04.248Z,67.55
2022-12-25T09:42:34.457Z,68.26
2022-12-25T09:45:06.073Z,67.58
2022-12-25T09:47:38.409Z,67.71
2022-12-25T09:50:34.771Z,67.90
2022-12-25T09:53:07.817Z,67.50
2022-12-25T09:55:43.545Z,68.28
2022-12-25T09:58:13.359Z,67.38
2022-12-25T10:00:58.822Z,67.97
2022-12-25T10:03:44.713Z,67.56
2022-12-25T10:06:20.143Z,66.64
2022-12-25T10:08:52.928Z,67.19
2022-12-25T10:11:35.139Z,67.75
2022-12-25T10:14:39.310Z,67.18
2022-12-25T10:17:46.940Z,67.32
2022-12-25T10:20:49.220Z,67.08
2022-12-25T10:23:37.204Z,67.54
2022-12-25T10:26:12.073Z,68.69
2022-12-25T10:28:43.887Z,68.31
2022-12-25T10:31:20.802Z,68.65
2022-12-25T10:33:53.686Z,67.74
2022-12-25T10:36:26.935Z,67.17
2022-12-25T10:38:55.089Z,67.56
2022-12-25T10:41:59.508Z,65.85
2022-12-25T10:44:26.706Z,66.97
2022-12-25T10:46:58.692Z,66.76
2022-12-25T10:49:31.678Z,66.45
2022-12-25T10:51:58.703Z,66.56
2022-12-25T10:54:27.284Z,67.02
2022-12-25T10:57:00.926Z,67.29
2022-12-25T10:59:34.130Z,67.45
2022-12-25T11:02:19.764Z,66.93
2022-12-25T11:04:47.236Z,66.44
2022-12-25T11:07:20.322Z,66.04
2022-12-25T11:09:55.451Z,66.35
2022-12-25T11:12:42.221Z,66.72
2022-12-25T11:15:57.501Z,66.65
2022-12-25T11:18:27.386Z,66.59
2022-12-25T11:20:58.264Z,66.25
2022-12-25T11:23:27.797Z,66.75
2022-12-25T11:26:00.194Z,66.49
2022-12-25T11:28:29.157Z,66.68
2022-12-25T11:31:19.868Z,66.48
2022-12-25T11:34:07.671Z,66.09
2022-12-25T11:36:46.851Z,65.30
2022-12-25T11:39:25.534Z,65.80
2022-12-25T11:41:58.224Z,64.99
2022-12-25T11:44:43.933Z,65.08
2022-12-25T11:47:21.899Z,64.77
2022-12-25T11:50:01.428Z,64.43
2022-12-25T11:52:36.681Z,64.93
2022-12-25T11:55:15.561Z,64.47
2022-12-25T11:57:45.688Z,64.91
2022-12-25T12:00:16.018Z,64.58
2022-12-25T12:03:07.114Z,63.27
2022-12-25T12:05:46.866Z,64.30
2022-12-25T12:08:14.591Z,64.41
2022-12-25T12:11:23.983Z,63.46
2022-12-25T12:13:53.595Z,64.73
2022-12-25T12:16:20.794Z,64.57
2022-12-25T12:18:50.498Z,63.39
2022-12-25T12:21:17.778Z,63.48
2022-12-25T12:24:03.090Z,63.61
2022-12-25T12:26:34.866Z,62.95
2022-12-25T12:29:03.556Z,63.35
2022-12-25T12:31:47.390Z,62.67
2022-12-25T12:34:42.629Z,62.58
2022-12-25T12:37:27.458Z,63.09
2022-12-25T12:39:55.808Z,63.50
2022-12-25T12:42:28.117Z,63.33
2022-12-25T12:44:58.374Z,63.83
2022-12-25T12:47:40.553Z,63.60
2022-12-25T12:50:38.110Z,62.39
2022-12-25T12:53:24.121Z,61.94
2022-12-25T12:55:52.694Z,63.50
2022-12-25T12:58:33.889Z,62.74
2022-12-25T13:01:13.640Z,63.47
2022-12-25T13:04:16.569Z,62.49
2022-12-25T13:06:58.486Z,63.38
2022-12-25T13:09:30.909Z,63.44
2022-12-25T13:11:57.949Z,63.23
2022-12-25T13:14:25.617Z,63.17
2022-12-25T13:16:54.464Z,62.97
2022-12-25T13:19:27.604Z,63.00
2022-12-25T13:22:03.947Z,63.39
2022-12-25T13:24:37.606Z,63.07
2022-12-25T13:27:25.866Z,63.05
2022-12-25T13:29:52.898Z,63.76
2022-12-25T13:32:24.969Z,63.74
2022-12-25T13:34:52.776Z,63.40
2022-12-25T13:37:23.032Z,64.26
2022-12-25T13:39:53.001Z,64.35
2022-12-25T13:42:22.791Z,64.19
2022-12-25T13:45:02.527Z,65.38
2022-12-25T13:47:34.916Z,65.12
2022-12-25T13:50:13.627Z,64.47
2022-12-25T13:52:40.976Z,64.54
2022-12-25T13:55:21.078Z,65.21
2022-12-25T13:57:53.925Z,64.80
2022-12-25T14:00:31.175Z,65.45
2022-12-25T14:02:59.078Z,65.85
2022-12-25T14:05:39.688Z,66.60
2022-12-25T14:08:19.418Z,66.40
2022-12-25T14:10:50.720Z,66.47
2022-12-25T14:13:20.922Z,66.39
2022-12-25T14:15:49.546Z,66.94
2022-12-25T14:18:18.534Z,66.71
2022-12-25T14:21:06.174Z,67.22
2022-12-25T14:23:42.239Z,67.14
2022-12-25T14:26:26.351Z,67.49
2022-12-25T14:28:57.783Z,67.67
2022-12-25T14:31:25.225Z,67.81
2022-12-25T14:33:54.247Z,68.51
2022-12-25T14:36:21.966Z,68.30
2022-12-25T14:39:04.355Z,68.41
2022-12-25T14:41:39.337Z,68.69
2022-12-25T14:44:28.411Z,69.30
2022-12-25T14:47:25.440Z,69.07
2022-12-25T14:49:54.677Z,69.14
2022-12-25T14:52:31.344Z,69.16
2022-12-25T14:55:01.841Z,69.17
2022-12-25T14:57:35.011Z,69.14
2022-12-25T15:00:24.344Z,69.22
2022-12-25T15:02:53.709Z,69.93
2022-12-25T15:05:33.504Z,69.94
2022-12-25T15:08:03.305Z,69.64
2022-12-25T15:13:18.276Z,69.96
2022-12-25T15:16:16.297Z,69.84
2022-12-25T15:18:45.822Z,69.58
2022-12-25T15:21:25.832Z,69.89
2022-12-25T15:23:54.696Z,69.82
2022-12-25T15:26:22.001Z,70.38
2022-12-25T15:28:49.286Z,70.35
2022-12-25T15:31:25.225Z,70.29
2022-12-25T15:33:53.876Z,70.27
2022-12-25T15:36:21.803Z,70.75
2022-12-25T15:38:49.160Z,70.43
2022-12-25T15:41:53.891Z,70.30
2022-12-25T15:44:21.716Z,70.63
2022-12-25T15:46:48.998Z,70.93
2022-12-25T15:49:17.013Z,70.93
2022-12-25T15:51:44.804Z,71.07
2022-12-25T15:54:11.984Z,70.87
2022-12-25T15:56:49.101Z,70.93
2022-12-25T15:59:18.492Z,70.65
2022-12-25T16:01:49.415Z,70.38
2022-12-25T16:04:16.596Z,69.96
2022-12-25T16:06:43.872Z,69.28
2022-12-25T16:09:15.296Z,69.03
2022-12-25T16:11:42.752Z,69.17
2022-12-25T16:14:10.052Z,69.40
2022-12-25T16:16:37.388Z,68.84
2022-12-25T16:19:04.817Z,68.58
2022-12-25T16:21:41.227Z,68.85
2022-12-25T16:24:08.613Z,68.87
2022-12-25T16:26:35.770Z,68.27
2022-12-25T16:29:07.497Z,67.83
2022-12-25T16:31:36.223Z,68.05
2022-12-25T16:34:04.894Z,68.37
2022-12-25T16:36:32.031Z,68.16
2022-12-25T16:38:59.022Z,68.28
2022-12-25T16:41:26.183Z,67.87
2022-12-25T16:43:53.269Z,67.63
2022-12-25T16:46:23.050Z,67.53
2022-12-25T16:48:50.470Z,67.79
2022-12-25T16:51:19.644Z,66.52
2022-12-25T16:53:47.309Z,67.27
2022-12-25T16:56:20.787Z,66.90
2022-12-25T16:58:48.295Z,66.40
2022-12-25T17:01:20.935Z,67.20
2022-12-25T17:03:49.124Z,66.15
2022-12-25T17:06:24.376Z,66.48
2022-12-25T17:08:55.540Z,66.45
2022-12-25T17:11:27.377Z,66.82
2022-12-25T17:13:54.663Z,66.37
2022-12-25T17:16:25.140Z,66.13
2022-12-25T17:19:04.472Z,65.76
2022-12-25T17:21:35.258Z,65.62
2022-12-25T17:24:04.163Z,65.25
2022-12-25T17:26:32.550Z,65.22
2022-12-25T17:29:00.375Z,64.38
2022-12-25T17:31:27.755Z,64.70
2022-12-25T17:33:54.992Z,65.11
2022-12-25T17:36:22.773Z,65.21
2022-12-25T17:38:49.798Z,64.85
2022-12-25T17:41:18.490Z,65.24
2022-12-25T17:43:46.240Z,65.26
2022-12-25T17:46:15.356Z,65.90
2022-12-25T17:48:43.104Z,65.85
2022-12-25T17:51:13.127Z,65.16
2022-12-25T17:53:42.410Z,65.68
2022-12-25T17:56:10.737Z,65.99
2022-12-25T17:58:38.726Z,66.82
2022-12-25T18:01:11.834Z,66.96
2022-12-25T18:03:39.499Z,66.84
2022-12-25T18:06:08.656Z,67.21
2022-12-25T18:08:39.654Z,66.80
2022-12-25T18:11:10.837Z,66.65
2022-12-25T18:13:38.019Z,67.15
2022-12-25T18:16:07.347Z,67.29
2022-12-25T18:18:35.108Z,67.48
2022-12-25T18:21:02.411Z,68.03
2022-12-25T18:23:29.812Z,67.98
2022-12-25T18:26:00.514Z,68.35
2022-12-25T18:28:27.520Z,68.44
2022-12-25T18:30:54.444Z,68.28
2022-12-25T18:33:21.450Z,67.86
2022-12-25T18:35:48.478Z,68.62
2022-12-25T18:38:15.386Z,68.95
2022-12-25T18:40:47.201Z,69.46
2022-12-25T18:43:15.169Z,68.97
2022-12-25T18:45:42.699Z,69.45
2022-12-25T18:48:11.085Z,69.93
2022-12-25T18:50:40.581Z,69.56
2022-12-25T18:53:07.949Z,69.84
2022-12-25T18:55:35.717Z,69.63
2022-12-25T18:58:02.893Z,70.19
2022-12-25T19:00:29.927Z,70.08
2022-12-25T19:02:59.103Z,70.09
2022-12-25T19:05:26.504Z,70.53
2022-12-25T19:07:53.517Z,70.45
2022-12-25T19:10:20.441Z,70.51
2022-12-25T19:12:47.519Z,70.13
2022-12-25T19:15:14.831Z,70.65
2022-12-25T19:17:41.862Z,70.75
2022-12-25T19:20:09.269Z,70.68
2022-12-25T19:22:36.306Z,70.41
2022-12-25T19:25:03.621Z,70.46
2022-12-25T19:27:30.598Z,70.68
2022-12-25T19:29:57.532Z,70.76
2022-12-25T19:32:25.394Z,70.84
2022-12-25T19:34:52.413Z,70.66
2022-12-25T19:37:19.361Z,70.65
2022-12-25T19:39:46.872Z,70.29
2022-12-25T19:42:16.313Z,70.62
2022-12-25T19:44:43.588Z,69.98
2022-12-25T19:47:11.152Z,69.63
2022-12-25T19:49:39.198Z,70.06
2022-12-25T19:52:08.311Z,70.28
2022-12-25T19:54:35.290Z,70.62
2022-12-25T19:57:02.223Z,70.25
2022-12-25T19:59:29.181Z,70.58
2022-12-25T20:01:56.314Z,70.16
2022-12-25T20:04:23.380Z,70.17
2022-12-25T20:06:50.351Z,70.39
2022-12-25T20:09:21.475Z,70.02
2022-12-25T20:11:49.148Z,69.87
2022-12-25T20:14:16.883Z,70.43
2022-12-25T20:16:44.478Z,70.56
2022-12-25T20:19:13.231Z,70.36
2022-12-25T20:21:40.736Z,69.39
2022-12-25T20:24:11.571Z,69.80
2022-12-25T20:26:39.200Z,69.63
2022-12-25T20:29:06.847Z,69.91
2022-12-25T20:31:34.984Z,70.09
2022-12-25T20:34:11.220Z,69.75
2022-12-25T20:36:38.568Z,68.98
2022-12-25T20:39:09.485Z,68.54
2022-12-25T20:41:37.199Z,68.30
2022-12-25T20:44:06.557Z,69.33
2022-12-25T20:46:33.827Z,69.24
2022-12-25T20:49:01.929Z,69.30
2022-12-25T20:51:29.029Z,69.42
2022-12-25T20:53:56.469Z,69.27
2022-12-25T20:56:25.980Z,69.26
2022-12-25T20:58:58.477Z,69.47
2022-12-25T21:01:26.507Z,69.39
2022-12-25T21:03:54.351Z,69.04
2022-12-25T21:06:21.806Z,69.12
2022-12-25T21:08:48.880Z,68.76
2022-12-25T21:11:17.653Z,68.90
2022-12-25T21:13:46.408Z,68.79
2022-12-25T21:16:17.353Z,68.99
2022-12-25T21:18:44.763Z,69.00
2022-12-25T21:21:11.871Z,68.63
2022-12-25T21:23:40.108Z,68.17
2022-12-25T21:26:19.976Z,67.86
2022-12-25T21:28:48.261Z,67.70
2022-12-25T21:31:15.830Z,68.28
2022-12-25T21:33:52.074Z,67.33
2022-12-25T21:36:27.423Z,67.66
2022-12-25T21:38:56.008Z,67.26
2022-12-25T21:41:23.644Z,67.04
2022-12-25T21:43:50.875Z,66.11
2022-12-25T21:46:18.428Z,67.41
2022-12-25T21:48:45.774Z,67.90
2022-12-25T21:51:40.675Z,67.86
2022-12-25T21:54:08.396Z,66.87
2022-12-25T21:56:43.605Z,67.34
2022-12-25T21:59:17.177Z,66.15
2022-12-25T22:01:45.102Z,66.77
2022-12-25T22:04:14.009Z,66.63
2022-12-25T22:07:00.311Z,66.56
2022-12-25T22:09:27.655Z,66.80
2022-12-25T22:12:13.609Z,66.76
2022-12-25T22:14:56.212Z,66.37
2022-12-25T22:17:46.255Z,67.22
2022-12-25T22:20:31.564Z,66.82
2022-12-25T22:22:58.804Z,66.91
2022-12-25T22:25:27.024Z,67.16
2022-12-25T22:27:54.088Z,66.98
2022-12-25T22:30:24.325Z,66.57
2022-12-25T22:32:52.052Z,67.03
2022-12-25T22:35:19.461Z,67.34
2022-12-25T22:37:46.955Z,67.24
2022-12-25T22:40:16.518Z,66.57
2022-12-25T22:42:43.619Z,67.10
2022-12-25T22:45:11.800Z,67.14
2022-12-25T22:47:38.913Z,67.30
2022-12-25T22:50:06.869Z,67.68
2022-12-25T22:52:33.900Z,68.45
2022-12-25T22:55:01.088Z,68.38
2022-12-25T22:57:28.281Z,68.87
2022-12-25T22:59:55.211Z,68.98
2022-12-25T23:02:22.437Z,69.46
2022-12-25T23:04:49.685Z,69.62
2022-12-25T23:07:17.260Z,70.39
2022-12-25T23:09:45.078Z,70.83
2022-12-25T23:12:32.306Z,70.66
2022-12-25T23:14:59.231Z,71.60
2022-12-25T23:17:44.763Z,71.26
2022-12-25T23:20:33.560Z,70.87
2022-12-25T23:23:19.810Z,71.49
2022-12-25T23:26:05.338Z,71.54
2022-12-25T23:28:51.005Z,71.98
2022-12-25T23:31:18.801Z,72.05
2022-12-25T23:33:45.747Z,72.24
2022-12-25T23:36:12.609Z,73.16
2022-12-25T23:38:39.711Z,72.59
2022-12-25T23:41:07.822Z,73.00
2022-12-25T23:43:34.723Z,72.94
2022-12-25T23:46:01.719Z,72.87
2022-12-25T23:48:28.669Z,73.06
2022-12-25T23:50:56.075Z,72.95
2022-12-25T23:53:23.082Z,73.08
2022-12-25T23:55:55.376Z,72.44
2022-12-25T23:58:22.852Z,73.16
